sensor_id;sensor_type;location;lat;lon;timestamp;pressure;altitude;pressure_sealevel;temperature;humidity
76864;BME280;65834;52.364;9.754;2023-12-04T00:02:23;101257.06;;;0.67;69.09
76864;BME280;65834;52.364;9.754;2023-12-04T00:04:53;101257.94;;;0.67;69.18
76864;BME280;65834;52.364;9.754;2023-12-04T00:07:23;101263.34;;;0.66;69.41
76864;BME280;65834;52.364;9.754;2023-12-04T00:09:54;101256.13;;;0.68;69.39
76864;BME280;65834;52.364;9.754;2023-12-04T00:12:24;101260.81;;;0.64;69.41
76864;BME280;65834;52.364;9.754;2023-12-04T00:14:56;101263.56;;;0.63;69.71
76864;BME280;65834;52.364;9.754;2023-12-04T00:17:26;101261.25;;;0.71;69.90
76864;BME280;65834;52.364;9.754;2023-12-04T00:19:56;101241.84;;;0.69;69.50
76864;BME280;65834;52.364;9.754;2023-12-04T00:22:26;101243.88;;;0.65;70.29
76864;BME280;65834;52.364;9.754;2023-12-04T00:24:56;101236.66;;;0.67;70.32
76864;BME280;65834;52.364;9.754;2023-12-04T00:27:26;101238.44;;;0.67;70.59
76864;BME280;65834;52.364;9.754;2023-12-04T00:29:58;101237.38;;;0.69;70.87
76864;BME280;65834;52.364;9.754;2023-12-04T00:32:30;101224.06;;;0.69;71.44
76864;BME280;65834;52.364;9.754;2023-12-04T00:35:00;101219.91;;;0.65;71.80
76864;BME280;65834;52.364;9.754;2023-12-04T00:37:30;101218.31;;;0.63;72.23
76864;BME280;65834;52.364;9.754;2023-12-04T00:40:05;101212.78;;;0.66;72.46
76864;BME280;65834;52.364;9.754;2023-12-04T00:42:35;101206.81;;;0.62;72.91
76864;BME280;65834;52.364;9.754;2023-12-04T00:45:08;101202.25;;;0.64;73.04
76864;BME280;65834;52.364;9.754;2023-12-04T00:47:38;101191.28;;;0.56;72.93
76864;BME280;65834;52.364;9.754;2023-12-04T00:50:10;101197.47;;;0.57;73.21
76864;BME280;65834;52.364;9.754;2023-12-04T00:52:40;101190.34;;;0.57;73.31
76864;BME280;65834;52.364;9.754;2023-12-04T00:55:09;101182.59;;;0.54;73.54
76864;BME280;65834;52.364;9.754;2023-12-04T00:57:39;101167.13;;;0.59;73.23
76864;BME280;65834;52.364;9.754;2023-12-04T01:00:13;101169.16;;;0.55;73.38
76864;BME280;65834;52.364;9.754;2023-12-04T01:02:43;101166.25;;;0.59;73.00
76864;BME280;65834;52.364;9.754;2023-12-04T01:05:12;101164.59;;;0.58;73.27
76864;BME280;65834;52.364;9.754;2023-12-04T01:07:42;101153.19;;;0.55;73.26
76864;BME280;65834;52.364;9.754;2023-12-04T01:10:12;101152.75;;;0.62;72.76
76864;BME280;65834;52.364;9.754;2023-12-04T01:12:41;101153.91;;;0.70;72.09
76864;BME280;65834;52.364;9.754;2023-12-04T01:15:13;101144.50;;;0.77;71.55
76864;BME280;65834;52.364;9.754;2023-12-04T01:17:43;101143.44;;;0.80;70.92
76864;BME280;65834;52.364;9.754;2023-12-04T01:20:13;101139.06;;;0.79;70.52
76864;BME280;65834;52.364;9.754;2023-12-04T01:22:43;101133.03;;;0.77;70.52
76864;BME280;65834;52.364;9.754;2023-12-04T01:25:13;101135.31;;;0.81;70.58
76864;BME280;65834;52.364;9.754;2023-12-04T01:27:42;101129.59;;;0.75;70.68
76864;BME280;65834;52.364;9.754;2023-12-04T01:30:15;101133.28;;;0.85;70.45
76864;BME280;65834;52.364;9.754;2023-12-04T01:32:44;101113.75;;;0.73;70.35
76864;BME280;65834;52.364;9.754;2023-12-04T01:35:14;101135.69;;;0.77;70.61
76864;BME280;65834;52.364;9.754;2023-12-04T01:37:44;101126.50;;;0.81;70.43
76864;BME280;65834;52.364;9.754;2023-12-04T01:40:14;101117.50;;;0.94;69.88
76864;BME280;65834;52.364;9.754;2023-12-04T01:42:43;101115.16;;;0.90;70.13
76864;BME280;65834;52.364;9.754;2023-12-04T01:45:15;101111.63;;;0.89;70.53
76864;BME280;65834;52.364;9.754;2023-12-04T01:47:45;101102.81;;;0.89;71.12
76864;BME280;65834;52.364;9.754;2023-12-04T01:50:15;101095.78;;;0.88;71.45
76864;BME280;65834;52.364;9.754;2023-12-04T01:52:46;101094.31;;;0.84;71.79
76864;BME280;65834;52.364;9.754;2023-12-04T01:55:16;101091.03;;;0.80;72.61
76864;BME280;65834;52.364;9.754;2023-12-04T01:57:46;101090.09;;;0.92;72.86
76864;BME280;65834;52.364;9.754;2023-12-04T02:00:19;101090.09;;;0.92;73.04
76864;BME280;65834;52.364;9.754;2023-12-04T02:02:48;101095.00;;;0.98;73.80
76864;BME280;65834;52.364;9.754;2023-12-04T02:05:18;101091.59;;;0.96;74.21
76864;BME280;65834;52.364;9.754;2023-12-04T02:07:48;101085.00;;;0.89;75.06
76864;BME280;65834;52.364;9.754;2023-12-04T02:10:19;101077.25;;;0.86;75.63
76864;BME280;65834;52.364;9.754;2023-12-04T02:12:49;101076.66;;;0.83;76.33
76864;BME280;65834;52.364;9.754;2023-12-04T02:15:21;101069.13;;;0.77;76.76
76864;BME280;65834;52.364;9.754;2023-12-04T02:17:51;101068.16;;;0.78;77.31
76864;BME280;65834;52.364;9.754;2023-12-04T02:20:30;101057.03;;;0.84;77.08
76864;BME280;65834;52.364;9.754;2023-12-04T02:23:00;101065.66;;;0.87;76.92
76864;BME280;65834;52.364;9.754;2023-12-04T02:25:32;101062.81;;;0.78;77.55
76864;BME280;65834;52.364;9.754;2023-12-04T02:28:06;101055.19;;;0.73;78.03
76864;BME280;65834;52.364;9.754;2023-12-04T02:30:37;101045.50;;;0.72;78.33
76864;BME280;65834;52.364;9.754;2023-12-04T02:33:07;101048.38;;;0.69;78.57
76864;BME280;65834;52.364;9.754;2023-12-04T02:35:39;101047.31;;;0.72;78.63
76864;BME280;65834;52.364;9.754;2023-12-04T02:38:10;101051.78;;;0.71;78.52
76864;BME280;65834;52.364;9.754;2023-12-04T02:40:43;101045.84;;;0.68;78.76
76864;BME280;65834;52.364;9.754;2023-12-04T02:43:13;101041.75;;;0.75;78.50
76864;BME280;65834;52.364;9.754;2023-12-04T02:45:42;101041.03;;;0.73;78.59
76864;BME280;65834;52.364;9.754;2023-12-04T02:48:12;101031.34;;;0.72;78.39
76864;BME280;65834;52.364;9.754;2023-12-04T02:50:42;101029.88;;;0.68;78.63
76864;BME280;65834;52.364;9.754;2023-12-04T02:53:11;101026.00;;;0.72;78.40
76864;BME280;65834;52.364;9.754;2023-12-04T02:55:43;101023.47;;;0.70;77.97
76864;BME280;65834;52.364;9.754;2023-12-04T02:58:13;101022.91;;;0.78;77.95
76864;BME280;65834;52.364;9.754;2023-12-04T03:00:43;101017.47;;;0.79;77.85
76864;BME280;65834;52.364;9.754;2023-12-04T03:03:12;101009.03;;;0.85;77.15
76864;BME280;65834;52.364;9.754;2023-12-04T03:05:42;101003.22;;;0.91;76.79
76864;BME280;65834;52.364;9.754;2023-12-04T03:08:11;101005.28;;;0.88;76.49
76864;BME280;65834;52.364;9.754;2023-12-04T03:10:44;101005.28;;;0.88;76.58
76864;BME280;65834;52.364;9.754;2023-12-04T03:13:13;100997.63;;;0.83;76.51
76864;BME280;65834;52.364;9.754;2023-12-04T03:15:43;100992.81;;;0.88;76.29
76864;BME280;65834;52.364;9.754;2023-12-04T03:18:12;100996.91;;;0.92;75.90
76864;BME280;65834;52.364;9.754;2023-12-04T03:20:42;100998.63;;;0.93;75.72
76864;BME280;65834;52.364;9.754;2023-12-04T03:23:12;100993.28;;;0.93;75.37
76864;BME280;65834;52.364;9.754;2023-12-04T03:25:44;100996.47;;;0.98;75.63
76864;BME280;65834;52.364;9.754;2023-12-04T03:28:13;100994.53;;;1.00;75.40
76864;BME280;65834;52.364;9.754;2023-12-04T03:30:43;100992.72;;;1.01;74.84
76864;BME280;65834;52.364;9.754;2023-12-04T03:33:13;100982.47;;;1.07;74.63
76864;BME280;65834;52.364;9.754;2023-12-04T03:35:43;100988.75;;;1.06;74.96
76864;BME280;65834;52.364;9.754;2023-12-04T03:38:12;100974.94;;;1.01;75.05
76864;BME280;65834;52.364;9.754;2023-12-04T03:40:45;100980.13;;;1.03;74.93
76864;BME280;65834;52.364;9.754;2023-12-04T03:43:14;100973.38;;;1.10;74.85
76864;BME280;65834;52.364;9.754;2023-12-04T03:45:44;100969.47;;;1.03;74.51
76864;BME280;65834;52.364;9.754;2023-12-04T03:48:14;100962.44;;;1.02;75.13
76864;BME280;65834;52.364;9.754;2023-12-04T03:50:43;100950.75;;;1.04;74.71
76864;BME280;65834;52.364;9.754;2023-12-04T03:53:13;100952.06;;;1.10;74.49
76864;BME280;65834;52.364;9.754;2023-12-04T03:55:45;100954.72;;;1.10;74.08
76864;BME280;65834;52.364;9.754;2023-12-04T03:58:15;100947.59;;;1.11;74.02
76864;BME280;65834;52.364;9.754;2023-12-04T04:00:44;100948.91;;;1.05;74.33
76864;BME280;65834;52.364;9.754;2023-12-04T04:03:14;100944.31;;;1.07;73.96
76864;BME280;65834;52.364;9.754;2023-12-04T04:05:43;100935.84;;;1.13;73.13
76864;BME280;65834;52.364;9.754;2023-12-04T04:08:13;100933.28;;;1.12;72.60
76864;BME280;65834;52.364;9.754;2023-12-04T04:10:45;100924.59;;;1.09;73.03
76864;BME280;65834;52.364;9.754;2023-12-04T04:13:15;100924.22;;;1.03;73.59
76864;BME280;65834;52.364;9.754;2023-12-04T04:15:44;100925.91;;;1.04;73.77
76864;BME280;65834;52.364;9.754;2023-12-04T04:18:14;100908.72;;;1.08;74.03
76864;BME280;65834;52.364;9.754;2023-12-04T04:20:44;100909.09;;;1.03;74.47
76864;BME280;65834;52.364;9.754;2023-12-04T04:23:13;100899.16;;;1.05;74.82
76864;BME280;65834;52.364;9.754;2023-12-04T04:25:46;100899.16;;;1.05;74.22
76864;BME280;65834;52.364;9.754;2023-12-04T04:28:15;100904.00;;;1.12;74.46
76864;BME280;65834;52.364;9.754;2023-12-04T04:30:45;100904.63;;;1.04;74.58
76864;BME280;65834;52.364;9.754;2023-12-04T04:33:14;100905.94;;;0.98;74.42
76864;BME280;65834;52.364;9.754;2023-12-04T04:35:44;100892.50;;;1.00;74.84
76864;BME280;65834;52.364;9.754;2023-12-04T04:38:14;100892.16;;;1.04;74.53
76864;BME280;65834;52.364;9.754;2023-12-04T04:40:46;100888.25;;;1.08;72.99
76864;BME280;65834;52.364;9.754;2023-12-04T04:43:16;100892.00;;;1.06;73.13
76864;BME280;65834;52.364;9.754;2023-12-04T04:45:48;100892.97;;;1.05;73.07
76864;BME280;65834;52.364;9.754;2023-12-04T04:48:17;100890.91;;;1.08;72.07
76864;BME280;65834;52.364;9.754;2023-12-04T04:50:47;100878.47;;;1.09;71.68
76864;BME280;65834;52.364;9.754;2023-12-04T04:53:17;100892.63;;;1.09;71.57
76864;BME280;65834;52.364;9.754;2023-12-04T04:55:49;100886.44;;;1.09;70.83
76864;BME280;65834;52.364;9.754;2023-12-04T04:58:21;100888.63;;;1.04;70.85
76864;BME280;65834;52.364;9.754;2023-12-04T05:00:51;100880.50;;;1.05;70.77
76864;BME280;65834;52.364;9.754;2023-12-04T05:03:20;100867.31;;;1.04;70.89
76864;BME280;65834;52.364;9.754;2023-12-04T05:05:51;100868.75;;;1.08;71.66
76864;BME280;65834;52.364;9.754;2023-12-04T05:08:20;100873.84;;;1.00;71.49
76864;BME280;65834;52.364;9.754;2023-12-04T05:10:52;100881.97;;;0.98;71.95
76864;BME280;65834;52.364;9.754;2023-12-04T05:13:22;100869.00;;;1.05;72.30
76864;BME280;65834;52.364;9.754;2023-12-04T05:15:51;100865.03;;;1.11;72.01
76864;BME280;65834;52.364;9.754;2023-12-04T05:18:21;100857.88;;;1.11;71.72
76864;BME280;65834;52.364;9.754;2023-12-04T05:20:51;100864.41;;;1.18;71.40
76864;BME280;65834;52.364;9.754;2023-12-04T05:23:20;100866.69;;;1.12;71.60
76864;BME280;65834;52.364;9.754;2023-12-04T05:25:53;100863.69;;;1.16;71.08
76864;BME280;65834;52.364;9.754;2023-12-04T05:28:23;100861.13;;;1.15;71.16
76864;BME280;65834;52.364;9.754;2023-12-04T05:30:52;100852.78;;;1.19;70.70
76864;BME280;65834;52.364;9.754;2023-12-04T05:33:22;100843.34;;;1.15;70.23
76864;BME280;65834;52.364;9.754;2023-12-04T05:35:53;100845.88;;;1.05;70.27
76864;BME280;65834;52.364;9.754;2023-12-04T05:38:22;100855.81;;;1.15;70.09
76864;BME280;65834;52.364;9.754;2023-12-04T05:40:54;100846.97;;;1.14;70.29
76864;BME280;65834;52.364;9.754;2023-12-04T05:43:24;100846.84;;;1.16;69.97
76864;BME280;65834;52.364;9.754;2023-12-04T05:45:54;100839.81;;;1.15;70.09
76864;BME280;65834;52.364;9.754;2023-12-04T05:48:23;100842.38;;;1.16;70.08
76864;BME280;65834;52.364;9.754;2023-12-04T05:50:53;100842.63;;;1.13;70.38
76864;BME280;65834;52.364;9.754;2023-12-04T05:53:22;100841.28;;;1.19;69.63
76864;BME280;65834;52.364;9.754;2023-12-04T05:55:54;100847.56;;;1.18;69.61
76864;BME280;65834;52.364;9.754;2023-12-04T05:58:24;100840.09;;;1.23;69.65
76864;BME280;65834;52.364;9.754;2023-12-04T06:00:53;100832.31;;;1.31;69.36
76864;BME280;65834;52.364;9.754;2023-12-04T06:03:23;100829.53;;;1.32;68.48
76864;BME280;65834;52.364;9.754;2023-12-04T06:05:53;100838.00;;;1.37;67.42
76864;BME280;65834;52.364;9.754;2023-12-04T06:08:30;100830.34;;;1.33;67.11
76864;BME280;65834;52.364;9.754;2023-12-04T06:11:02;100833.13;;;1.42;67.38
76864;BME280;65834;52.364;9.754;2023-12-04T06:13:32;100827.44;;;1.47;66.49
76864;BME280;65834;52.364;9.754;2023-12-04T06:16:02;100828.88;;;1.51;66.27
76864;BME280;65834;52.364;9.754;2023-12-04T06:18:32;100817.75;;;1.46;66.23
76864;BME280;65834;52.364;9.754;2023-12-04T06:21:03;100823.91;;;1.57;66.41
76864;BME280;65834;52.364;9.754;2023-12-04T06:23:33;100815.03;;;1.57;65.61
76864;BME280;65834;52.364;9.754;2023-12-04T06:26:07;100813.84;;;1.61;65.18
76864;BME280;65834;52.364;9.754;2023-12-04T06:28:37;100813.59;;;1.64;64.82
76864;BME280;65834;52.364;9.754;2023-12-04T06:31:09;100824.00;;;1.67;64.49
76864;BME280;65834;52.364;9.754;2023-12-04T06:33:39;100809.09;;;1.64;64.28
76864;BME280;65834;52.364;9.754;2023-12-04T06:36:12;100816.72;;;1.69;64.67
76864;BME280;65834;52.364;9.754;2023-12-04T06:38:43;100820.72;;;1.63;63.94
76864;BME280;65834;52.364;9.754;2023-12-04T06:41:17;100815.78;;;1.59;64.52
76864;BME280;65834;52.364;9.754;2023-12-04T06:43:48;100815.78;;;1.59;64.04
76864;BME280;65834;52.364;9.754;2023-12-04T06:46:20;100816.03;;;1.56;63.84
76864;BME280;65834;52.364;9.754;2023-12-04T06:48:52;100809.59;;;1.58;64.31
76864;BME280;65834;52.364;9.754;2023-12-04T06:51:24;100812.13;;;1.60;64.31
76864;BME280;65834;52.364;9.754;2023-12-04T06:53:53;100813.47;;;1.54;64.12
76864;BME280;65834;52.364;9.754;2023-12-04T06:56:25;100809.25;;;1.52;64.32
76864;BME280;65834;52.364;9.754;2023-12-04T06:58:55;100796.06;;;1.50;64.01
76864;BME280;65834;52.364;9.754;2023-12-04T07:01:25;100803.56;;;1.56;63.95
76864;BME280;65834;52.364;9.754;2023-12-04T07:03:55;100809.16;;;1.53;64.11
76864;BME280;65834;52.364;9.754;2023-12-04T07:06:24;100825.00;;;1.55;63.81
76864;BME280;65834;52.364;9.754;2023-12-04T07:08:54;100809.41;;;1.50;64.20
76864;BME280;65834;52.364;9.754;2023-12-04T07:11:26;100813.63;;;1.53;64.23
76864;BME280;65834;52.364;9.754;2023-12-04T07:13:56;100808.16;;;1.54;64.17
76864;BME280;65834;52.364;9.754;2023-12-04T07:16:25;100814.34;;;1.55;63.78
76864;BME280;65834;52.364;9.754;2023-12-04T07:18:55;100814.94;;;1.58;63.88
76864;BME280;65834;52.364;9.754;2023-12-04T07:21:24;100809.00;;;1.66;63.51
76864;BME280;65834;52.364;9.754;2023-12-04T07:23:54;100811.66;;;1.66;63.18
76864;BME280;65834;52.364;9.754;2023-12-04T07:26:26;100817.47;;;1.60;63.19
76864;BME280;65834;52.364;9.754;2023-12-04T07:28:56;100804.13;;;1.60;63.78
76864;BME280;65834;52.364;9.754;2023-12-04T07:31:25;100796.88;;;1.62;62.94
76864;BME280;65834;52.364;9.754;2023-12-04T07:33:55;100801.72;;;1.57;63.35
76864;BME280;65834;52.364;9.754;2023-12-04T07:36:27;100815.88;;;1.69;63.17
76864;BME280;65834;52.364;9.754;2023-12-04T07:38:57;100814.19;;;1.68;62.97
76864;BME280;65834;52.364;9.754;2023-12-04T07:41:31;100812.88;;;1.62;63.36
76864;BME280;65834;52.364;9.754;2023-12-04T07:44:00;100807.41;;;1.63;62.90
76864;BME280;65834;52.364;9.754;2023-12-04T07:46:30;100812.72;;;1.63;62.87
76864;BME280;65834;52.364;9.754;2023-12-04T07:48:59;100804.72;;;1.63;62.82
76864;BME280;65834;52.364;9.754;2023-12-04T07:51:30;100805.72;;;1.62;63.22
76864;BME280;65834;52.364;9.754;2023-12-04T07:54:00;100798.81;;;1.60;63.29
76864;BME280;65834;52.364;9.754;2023-12-04T07:56:35;100800.13;;;1.66;63.44
76864;BME280;65834;52.364;9.754;2023-12-04T07:59:04;100794.56;;;1.69;62.91
76864;BME280;65834;52.364;9.754;2023-12-04T08:01:34;100792.84;;;1.68;63.14
76864;BME280;65834;52.364;9.754;2023-12-04T08:04:04;100793.00;;;1.66;63.57
76864;BME280;65834;52.364;9.754;2023-12-04T08:06:33;100796.63;;;1.65;64.03
76864;BME280;65834;52.364;9.754;2023-12-04T08:09:03;100799.03;;;1.68;63.47
76864;BME280;65834;52.364;9.754;2023-12-04T08:11:39;100799.53;;;1.62;63.91
76864;BME280;65834;52.364;9.754;2023-12-04T08:14:08;100788.88;;;1.62;63.68
76864;BME280;65834;52.364;9.754;2023-12-04T08:16:38;100795.44;;;1.58;64.35
76864;BME280;65834;52.364;9.754;2023-12-04T08:19:08;100791.06;;;1.57;65.30
76864;BME280;65834;52.364;9.754;2023-12-04T08:21:38;100791.31;;;1.54;65.49
76864;BME280;65834;52.364;9.754;2023-12-04T08:24:08;100788.06;;;1.50;66.29
76864;BME280;65834;52.364;9.754;2023-12-04T08:26:40;100776.66;;;1.59;67.39
76864;BME280;65834;52.364;9.754;2023-12-04T08:29:09;100777.72;;;1.57;67.31
76864;BME280;65834;52.364;9.754;2023-12-04T08:31:39;100777.91;;;1.44;67.05
76864;BME280;65834;52.364;9.754;2023-12-04T08:34:08;100772.59;;;1.33;67.07
76864;BME280;65834;52.364;9.754;2023-12-04T08:36:38;100772.00;;;1.30;67.14
76864;BME280;65834;52.364;9.754;2023-12-04T08:39:12;100768.28;;;1.21;66.85
76864;BME280;65834;52.364;9.754;2023-12-04T08:41:46;100765.41;;;1.45;66.97
76864;BME280;65834;52.364;9.754;2023-12-04T08:44:27;100776.50;;;1.29;67.15
76864;BME280;65834;52.364;9.754;2023-12-04T08:46:57;100771.19;;;1.18;66.60
76864;BME280;65834;52.364;9.754;2023-12-04T08:49:29;100772.03;;;1.19;66.14
76864;BME280;65834;52.364;9.754;2023-12-04T08:52:09;100773.34;;;1.24;66.19
76864;BME280;65834;52.364;9.754;2023-12-04T08:54:39;100768.63;;;1.28;65.76
76864;BME280;65834;52.364;9.754;2023-12-04T08:57:12;100768.38;;;1.31;65.68
76864;BME280;65834;52.364;9.754;2023-12-04T08:59:42;100764.34;;;1.36;64.52
76864;BME280;65834;52.364;9.754;2023-12-04T09:02:11;100770.44;;;1.38;64.88
76864;BME280;65834;52.364;9.754;2023-12-04T09:04:41;100761.34;;;1.41;64.64
76864;BME280;65834;52.364;9.754;2023-12-04T09:07:11;100754.19;;;1.41;64.57
76864;BME280;65834;52.364;9.754;2023-12-04T09:09:44;100754.50;;;1.48;64.97
76864;BME280;65834;52.364;9.754;2023-12-04T09:12:16;100754.25;;;1.51;64.50
76864;BME280;65834;52.364;9.754;2023-12-04T09:14:46;100748.56;;;1.55;64.15
76864;BME280;65834;52.364;9.754;2023-12-04T09:17:15;100760.53;;;1.61;63.86
76864;BME280;65834;52.364;9.754;2023-12-04T09:19:48;100752.28;;;1.64;63.64
76864;BME280;65834;52.364;9.754;2023-12-04T09:22:18;100755.53;;;1.68;64.03
76864;BME280;65834;52.364;9.754;2023-12-04T09:24:55;100746.31;;;1.72;63.28
76864;BME280;65834;52.364;9.754;2023-12-04T09:27:27;100752.25;;;1.75;63.47
76864;BME280;65834;52.364;9.754;2023-12-04T09:29:57;100742.66;;;1.73;63.76
76864;BME280;65834;52.364;9.754;2023-12-04T09:32:26;100743.25;;;1.76;64.25
76864;BME280;65834;52.364;9.754;2023-12-04T09:34:57;100747.34;;;1.80;64.81
76864;BME280;65834;52.364;9.754;2023-12-04T09:37:26;100745.41;;;1.82;64.52
76864;BME280;65834;52.364;9.754;2023-12-04T09:39:56;100737.66;;;1.79;64.86
76864;BME280;65834;52.364;9.754;2023-12-04T09:42:30;100740.81;;;1.84;64.57
76864;BME280;65834;52.364;9.754;2023-12-04T09:45:01;100744.03;;;1.88;64.72
76864;BME280;65834;52.364;9.754;2023-12-04T09:47:31;100742.47;;;1.85;64.80
76864;BME280;65834;52.364;9.754;2023-12-04T09:50:05;100745.13;;;1.85;64.81
76864;BME280;65834;52.364;9.754;2023-12-04T09:52:36;100741.63;;;1.85;64.85
76864;BME280;65834;52.364;9.754;2023-12-04T09:55:06;100735.22;;;1.87;65.15
76864;BME280;65834;52.364;9.754;2023-12-04T09:57:38;100738.84;;;1.86;65.23
76864;BME280;65834;52.364;9.754;2023-12-04T10:00:10;100724.13;;;1.92;64.59
76864;BME280;65834;52.364;9.754;2023-12-04T10:02:41;100726.69;;;1.93;64.48
76864;BME280;65834;52.364;9.754;2023-12-04T10:05:11;100716.22;;;2.01;64.92
76864;BME280;65834;52.364;9.754;2023-12-04T10:07:41;100703.56;;;2.03;63.60
76864;BME280;65834;52.364;9.754;2023-12-04T10:10:10;100712.44;;;2.04;64.09
76864;BME280;65834;52.364;9.754;2023-12-04T10:12:43;100708.63;;;1.97;63.97
76864;BME280;65834;52.364;9.754;2023-12-04T10:15:13;100705.16;;;2.06;63.98
76864;BME280;65834;52.364;9.754;2023-12-04T10:17:43;100695.78;;;2.11;63.26
76864;BME280;65834;52.364;9.754;2023-12-04T10:20:15;100694.84;;;2.22;62.59
76864;BME280;65834;52.364;9.754;2023-12-04T10:22:55;100686.44;;;2.27;62.59
76864;BME280;65834;52.364;9.754;2023-12-04T10:25:26;100686.56;;;2.25;62.55
76864;BME280;65834;52.364;9.754;2023-12-04T10:28:08;100681.38;;;2.24;62.18
76864;BME280;65834;52.364;9.754;2023-12-04T10:30:38;100687.38;;;2.16;62.93
76864;BME280;65834;52.364;9.754;2023-12-04T10:33:09;100679.56;;;2.24;63.12
76864;BME280;65834;52.364;9.754;2023-12-04T10:35:39;100674.19;;;2.14;63.15
76864;BME280;65834;52.364;9.754;2023-12-04T10:38:10;100669.16;;;2.21;62.74
76864;BME280;65834;52.364;9.754;2023-12-04T10:40:40;100676.44;;;2.19;63.05
76864;BME280;65834;52.364;9.754;2023-12-04T10:43:15;100664.84;;;2.30;62.85
76864;BME280;65834;52.364;9.754;2023-12-04T10:45:46;100665.66;;;2.21;62.57
76864;BME280;65834;52.364;9.754;2023-12-04T10:48:17;100661.19;;;2.31;62.32
76864;BME280;65834;52.364;9.754;2023-12-04T10:50:48;100653.06;;;2.32;62.31
76864;BME280;65834;52.364;9.754;2023-12-04T10:53:19;100638.84;;;2.32;62.04
76864;BME280;65834;52.364;9.754;2023-12-04T10:55:49;100647.59;;;2.34;62.27
76864;BME280;65834;52.364;9.754;2023-12-04T10:58:26;100644.63;;;2.27;62.43
76864;BME280;65834;52.364;9.754;2023-12-04T11:00:56;100634.53;;;2.31;62.26
76864;BME280;65834;52.364;9.754;2023-12-04T11:03:34;100641.13;;;2.36;61.46
76864;BME280;65834;52.364;9.754;2023-12-04T11:06:07;100635.91;;;2.35;61.49
76864;BME280;65834;52.364;9.754;2023-12-04T11:08:41;100635.34;;;2.31;61.10
76864;BME280;65834;52.364;9.754;2023-12-04T11:11:15;100639.44;;;2.35;60.65
76864;BME280;65834;52.364;9.754;2023-12-04T11:13:49;100628.19;;;2.32;61.34
76864;BME280;65834;52.364;9.754;2023-12-04T11:16:25;100629.63;;;2.36;61.97
76864;BME280;65834;52.364;9.754;2023-12-04T11:19:02;100620.03;;;2.24;62.06
76864;BME280;65834;52.364;9.754;2023-12-04T11:21:33;100618.66;;;2.39;61.39
76864;BME280;65834;52.364;9.754;2023-12-04T11:24:06;100613.44;;;2.37;61.56
76864;BME280;65834;52.364;9.754;2023-12-04T11:26:36;100610.78;;;2.37;61.30
76864;BME280;65834;52.364;9.754;2023-12-04T11:29:09;100614.75;;;2.43;61.36
76864;BME280;65834;52.364;9.754;2023-12-04T11:31:41;100599.03;;;2.40;60.68
76864;BME280;65834;52.364;9.754;2023-12-04T11:34:12;100596.34;;;2.40;60.74
76864;BME280;65834;52.364;9.754;2023-12-04T11:36:42;100604.63;;;2.46;60.80
76864;BME280;65834;52.364;9.754;2023-12-04T11:39:14;100589.72;;;2.44;59.91
76864;BME280;65834;52.364;9.754;2023-12-04T11:41:45;100590.03;;;2.50;60.15
76864;BME280;65834;52.364;9.754;2023-12-04T11:44:17;100587.09;;;2.53;59.69
76864;BME280;65834;52.364;9.754;2023-12-04T11:47:04;100586.25;;;2.53;60.14
76864;BME280;65834;52.364;9.754;2023-12-04T11:49:34;100586.13;;;2.54;59.97
76864;BME280;65834;52.364;9.754;2023-12-04T11:52:04;100578.69;;;2.58;59.64
76864;BME280;65834;52.364;9.754;2023-12-04T11:54:55;100576.00;;;2.48;59.63
76864;BME280;65834;52.364;9.754;2023-12-04T11:57:32;100569.22;;;2.44;60.10
76864;BME280;65834;52.364;9.754;2023-12-04T12:00:12;100570.09;;;2.45;59.47
76864;BME280;65834;52.364;9.754;2023-12-04T12:02:47;100569.81;;;2.48;59.55
76864;BME280;65834;52.364;9.754;2023-12-04T12:05:37;100568.25;;;2.45;60.02
76864;BME280;65834;52.364;9.754;2023-12-04T12:08:09;100552.28;;;2.55;59.35
76864;BME280;65834;52.364;9.754;2023-12-04T12:10:38;100558.88;;;2.60;59.47
76864;BME280;65834;52.364;9.754;2023-12-04T12:13:10;100557.03;;;2.51;58.86
76864;BME280;65834;52.364;9.754;2023-12-04T12:15:42;100545.78;;;2.48;59.51
76864;BME280;65834;52.364;9.754;2023-12-04T12:18:11;100537.91;;;2.56;59.00
76864;BME280;65834;52.364;9.754;2023-12-04T12:20:41;100541.88;;;2.52;59.12
76864;BME280;65834;52.364;9.754;2023-12-04T12:23:11;100538.94;;;2.55;59.73
76864;BME280;65834;52.364;9.754;2023-12-04T12:25:40;100540.88;;;2.53;59.45
76864;BME280;65834;52.364;9.754;2023-12-04T12:28:10;100523.03;;;2.53;59.43
76864;BME280;65834;52.364;9.754;2023-12-04T12:30:42;100520.34;;;2.53;59.11
76864;BME280;65834;52.364;9.754;2023-12-04T12:33:13;100526.25;;;2.47;59.33
76864;BME280;65834;52.364;9.754;2023-12-04T12:35:43;100513.88;;;2.46;59.21
76864;BME280;65834;52.364;9.754;2023-12-04T12:38:29;100516.69;;;2.45;59.16
76864;BME280;65834;52.364;9.754;2023-12-04T12:41:01;100515.31;;;2.60;59.38
76864;BME280;65834;52.364;9.754;2023-12-04T12:43:34;100496.22;;;2.55;59.54
76864;BME280;65834;52.364;9.754;2023-12-04T12:46:07;100494.78;;;2.51;59.95
76864;BME280;65834;52.364;9.754;2023-12-04T12:48:36;100499.28;;;2.50;60.36
76864;BME280;65834;52.364;9.754;2023-12-04T12:51:07;100495.50;;;2.53;59.81
76864;BME280;65834;52.364;9.754;2023-12-04T12:53:38;100487.75;;;2.50;59.62
76864;BME280;65834;52.364;9.754;2023-12-04T12:56:11;100483.16;;;2.52;60.26
76864;BME280;65834;52.364;9.754;2023-12-04T12:58:41;100490.72;;;2.47;59.96
76864;BME280;65834;52.364;9.754;2023-12-04T13:01:13;100481.44;;;2.51;59.87
76864;BME280;65834;52.364;9.754;2023-12-04T13:03:45;100488.31;;;2.53;59.70
76864;BME280;65834;52.364;9.754;2023-12-04T13:06:15;100481.19;;;2.63;60.18
76864;BME280;65834;52.364;9.754;2023-12-04T13:08:45;100476.53;;;2.65;59.84
76864;BME280;65834;52.364;9.754;2023-12-04T13:11:15;100475.69;;;2.65;59.23
76864;BME280;65834;52.364;9.754;2023-12-04T13:13:45;100465.28;;;2.71;58.98
76864;BME280;65834;52.364;9.754;2023-12-04T13:16:17;100466.41;;;2.69;58.79
76864;BME280;65834;52.364;9.754;2023-12-04T13:18:47;100461.91;;;2.69;58.75
76864;BME280;65834;52.364;9.754;2023-12-04T13:21:17;100464.03;;;2.66;59.26